Time;durP1;ratioP1;P1;durP2;ratioP2;P2;SDS_P1;SDS_P2;PMS_P1;PMS_P2;Temp;Humidity;BMP_temperature;BMP_pressure;BME280_temperature;BME280_humidity;BME280_pressure;Samples;Min_cycle;Max_cycle;Signal;HPM_P1;HPM_P2
2023/07/08 00:00:18;;;;;;;18.47;17.47;;;20.30;88.20;;;;;;2609768;54;20918;-73
2023/07/08 00:12:20;;;;;;;18.53;17.43;;;20.10;99.90;;;;;;2613826;54;21008;-73
2023/07/08 00:18:13;;;;;;;17.73;16.83;;;20.00;99.90;;;;;;2612808;54;20127;-72
2023/07/08 00:24:01;;;;;;;18.27;16.77;;;19.90;99.90;;;;;;2615308;39;20796;-72
2023/07/08 00:29:49;;;;;;;18.20;17.07;;;19.90;99.90;;;;;;2612572;54;20423;-71
2023/07/08 00:35:45;;;;;;;17.60;16.53;;;20.00;99.90;;;;;;2612626;54;20143;-72
2023/07/08 00:51:10;;;;;;;17.03;15.87;;;20.20;99.90;;;;;;2613318;54;20387;-72
2023/07/08 00:57:03;;;;;;;17.00;16.20;;;20.20;99.90;;;;;;2614253;54;20424;-73
2023/07/08 01:02:55;;;;;;;16.57;15.77;;;20.20;99.90;;;;;;2612540;54;20407;-71
2023/07/08 01:08:43;;;;;;;17.30;16.47;;;20.20;99.90;;;;;;2612041;46;20487;-71
2023/07/08 01:14:34;;;;;;;17.37;16.47;;;20.20;99.90;;;;;;2613946;39;20538;-71
2023/07/08 01:20:22;;;;;;;16.50;15.70;;;20.10;99.90;;;;;;2614112;54;20410;-71
2023/07/08 01:26:09;;;;;;;17.80;16.80;;;20.10;99.90;;;;;;2614184;54;20187;-72
2023/07/08 01:31:58;;;;;;;17.87;16.60;;;20.10;99.90;;;;;;2612991;54;20123;-71
2023/07/08 01:53:46;;;;;;;16.80;15.80;;;19.40;99.90;;;;;;2614145;54;20402;-72
2023/07/08 01:59:33;;;;;;;17.17;16.27;;;19.30;99.90;;;;;;2613828;39;20669;-72
2023/07/08 02:05:23;;;;;;;17.90;16.47;;;19.20;99.90;;;;;;2614269;54;20668;-71
2023/07/08 02:11:11;;;;;;;17.77;16.87;;;18.90;99.90;;;;;;2613673;54;20479;-71
2023/07/08 02:16:59;;;;;;;16.80;16.00;;;18.70;99.90;;;;;;2613986;54;20161;-71
2023/07/08 02:22:47;;;;;;;16.97;16.10;;;18.50;99.90;;;;;;2614435;54;20150;-72
2023/07/08 02:28:34;;;;;;;16.70;15.80;;;18.40;99.90;;;;;;2614444;54;20134;-72
2023/07/08 02:34:21;;;;;;;16.30;15.50;;;18.20;99.90;;;;;;2614197;39;20969;-71
2023/07/08 02:40:10;;;;;;;17.10;16.20;;;18.20;99.90;;;;;;2614722;54;20157;-72
2023/07/08 02:45:58;;;;;;;15.40;14.70;;;18.20;99.90;;;;;;2612663;54;20419;-72
2023/07/08 02:48:43;;;;;;;17.80;16.80;;;18.20;99.90;;;;;;2613716;54;20435;-71
2023/07/08 02:51:09;;;;;;;16.80;15.90;;;18.40;99.90;;;;;;2613070;54;20174;-71
2023/07/08 02:56:57;;;;;;;16.27;15.20;;;18.40;99.90;;;;;;2612830;54;20802;-71
2023/07/08 03:02:45;;;;;;;16.43;15.60;;;18.50;99.90;;;;;;2614960;39;20495;-72
2023/07/08 03:08:33;;;;;;;15.83;14.70;;;18.50;99.90;;;;;;2614136;54;20398;-75
2023/07/08 03:14:21;;;;;;;15.80;15.10;;;18.60;99.90;;;;;;2615331;31;20877;-72
2023/07/08 03:20:10;;;;;;;15.37;14.63;;;18.50;99.90;;;;;;2613728;54;20222;-71
2023/07/08 03:25:58;;;;;;;17.30;16.10;;;18.40;99.90;;;;;;2614676;54;20395;-72
2023/07/08 03:31:46;;;;;;;16.67;15.47;;;18.40;99.90;;;;;;2614258;46;20174;-72
2023/07/08 03:37:33;;;;;;;15.93;15.03;;;18.50;99.90;;;;;;2614360;54;20256;-73
2023/07/08 03:43:21;;;;;;;15.97;15.23;;;18.40;99.90;;;;;;2612601;39;20627;-72
2023/07/08 03:53:15;;;;;;;17.50;16.20;;;18.40;99.90;;;;;;2613996;54;20495;-73
2023/07/08 03:59:03;;;;;;;16.10;15.27;;;18.50;99.90;;;;;;2613036;54;20508;-72
2023/07/08 04:04:50;;;;;;;17.47;16.37;;;18.40;99.90;;;;;;2614286;54;20158;-72
2023/07/08 04:10:39;;;;;;;19.23;14.77;;;18.30;99.90;;;;;;2611672;54;20159;-72
2023/07/08 04:23:08;;;;;;;13.80;13.10;;;18.30;99.90;;;;;;2613560;54;20478;-72
2023/07/08 04:28:56;;;;;;;15.20;14.20;;;18.40;99.90;;;;;;2613823;54;20172;-73
2023/07/08 04:34:43;;;;;;;15.03;14.33;;;18.60;99.90;;;;;;2613996;54;20138;-73
2023/07/08 04:40:31;;;;;;;15.83;15.03;;;18.90;99.90;;;;;;2615107;39;20551;-72
2023/07/08 04:56:14;;;;;;;17.33;16.13;;;19.60;99.90;;;;;;2612096;54;20422;-71
2023/07/08 05:02:02;;;;;;;17.03;16.10;;;19.90;99.90;;;;;;2612130;54;20134;-72
2023/07/08 05:07:49;;;;;;;15.60;14.80;;;20.00;99.90;;;;;;2612874;54;20167;-72
2023/07/08 05:13:37;;;;;;;15.80;15.00;;;20.30;99.90;;;;;;2612504;54;20242;-71
2023/07/08 05:19:25;;;;;;;16.70;15.70;;;20.80;99.90;;;;;;2612407;54;20142;-72
2023/07/08 05:25:14;;;;;;;16.90;15.93;;;21.30;99.90;;;;;;2611210;54;21192;-73
2023/07/08 05:31:02;;;;;;;17.30;16.03;;;21.80;99.90;;;;;;2611265;54;20398;-72
2023/07/08 05:36:50;;;;;;;18.23;16.90;;;22.30;99.90;;;;;;2611085;54;20431;-73
2023/07/08 05:42:38;;;;;;;17.53;16.60;;;22.40;99.90;;;;;;2613739;54;20182;-72
2023/07/08 05:48:25;;;;;;;17.93;16.93;;;22.50;99.90;;;;;;2610801;54;20172;-73
2023/07/08 05:51:02;;;;;;;18.20;17.20;;;22.80;99.90;;;;;;2609553;54;20904;-71
2023/07/08 05:53:27;;;;;;;17.50;16.60;;;22.80;99.90;;;;;;2612633;54;20199;-73
2023/07/08 05:59:15;;;;;;;17.03;16.13;;;23.30;99.90;;;;;;2610778;54;20158;-71
2023/07/08 06:05:03;;;;;;;18.73;17.37;;;23.50;99.30;;;;;;2614376;54;20287;-71
2023/07/08 06:10:51;;;;;;;17.07;16.17;;;23.90;94.20;;;;;;2614197;54;20408;-71
2023/07/08 06:16:39;;;;;;;16.70;15.77;;;24.20;89.50;;;;;;2613280;54;20138;-71
2023/07/08 06:22:27;;;;;;;16.77;15.80;;;24.30;77.60;;;;;;2613388;54;20204;-70
2023/07/08 06:28:14;;;;;;;17.10;16.20;;;24.40;73.20;;;;;;2614017;46;20151;-72
2023/07/08 06:34:04;;;;;;;17.80;17.00;;;24.60;70.90;;;;;;2614426;54;20160;-72
2023/07/08 06:39:52;;;;;;;17.90;16.90;;;25.10;73.50;;;;;;2614729;54;20391;-71
2023/07/08 06:45:40;;;;;;;17.83;16.93;;;25.60;77.40;;;;;;2613346;54;20143;-71
2023/07/08 06:55:31;;;;;;;17.70;16.70;;;26.10;67.20;;;;;;2613058;54;20399;-72
2023/07/08 07:01:19;;;;;;;17.57;16.57;;;26.10;64.60;;;;;;2612287;54;20427;-71
2023/07/08 07:07:07;;;;;;;17.97;17.00;;;26.90;57.80;;;;;;2614147;54;20207;-72
2023/07/08 07:12:54;;;;;;;18.20;16.50;;;26.90;54.70;;;;;;2614990;54;20194;-71
2023/07/08 07:18:42;;;;;;;17.97;16.97;;;26.80;53.20;;;;;;2614095;54;20174;-71
2023/07/08 07:24:30;;;;;;;18.33;17.00;;;27.10;45.40;;;;;;2614436;54;20133;-73
2023/07/08 07:30:18;;;;;;;17.50;16.60;;;27.50;44.10;;;;;;2611320;54;20153;-72
2023/07/08 07:36:06;;;;;;;18.57;17.37;;;27.90;39.40;;;;;;2612463;39;20521;-72
2023/07/08 07:41:53;;;;;;;16.40;15.60;;;27.90;38.40;;;;;;2613075;54;20198;-71
2023/07/08 07:47:41;;;;;;;17.30;16.30;;;28.80;35.20;;;;;;2613682;54;20193;-71
2023/07/08 07:51:02;;;;;;;17.33;16.20;;;28.70;29.20;;;;;;2614072;54;20439;-71
2023/07/08 07:53:28;;;;;;;16.37;15.27;;;28.70;30.90;;;;;;2612866;54;20158;-71
2023/07/08 07:59:15;;;;;;;16.83;15.73;;;29.50;24.50;;;;;;2613698;54;20130;-72
2023/07/08 08:05:03;;;;;;;17.87;16.57;;;29.50;25.30;;;;;;2613568;54;20127;-71
2023/07/08 08:10:50;;;;;;;17.03;15.93;;;29.90;21.90;;;;;;2612250;54;20689;-73
2023/07/08 08:16:38;;;;;;;15.87;15.17;;;30.30;16.40;;;;;;2612826;54;20134;-72
2023/07/08 08:22:26;;;;;;;15.63;14.83;;;31.00;16.20;;;;;;2614344;54;20158;-71
2023/07/08 08:28:15;;;;;;;17.97;16.50;;;31.00;13.20;;;;;;2612728;54;20156;-71
2023/07/08 08:34:03;;;;;;;17.53;16.33;;;31.40;13.50;;;;;;2613845;39;20762;-72
2023/07/08 08:39:51;;;;;;;17.83;17.03;;;32.20;8.70;;;;;;2613790;54;20138;-72
2023/07/08 08:55:32;;;;;;;18.80;17.80;;;33.00;1.00;;;;;;2611947;54;20460;-71
2023/07/08 09:01:20;;;;;;;19.30;18.30;;;32.50;1.00;;;;;;2613057;54;20416;-72
2023/07/08 09:26:41;;;;;;;17.90;16.90;;;32.30;1.00;;;;;;2612262;54;20408;-72
2023/07/08 09:32:29;;;;;;;18.30;17.20;;;31.80;1.00;;;;;;2611721;54;20399;-72
2023/07/08 09:38:20;;;;;;;17.90;16.80;;;33.00;1.00;;;;;;2611595;54;20427;-73
2023/07/08 09:50:44;;;;;;;18.00;17.00;;;35.10;1.00;;;;;;2611098;54;20505;-73
2023/07/08 09:56:32;;;;;;;18.23;16.90;;;33.90;1.00;;;;;;2611595;54;20495;-72
2023/07/08 09:59:47;;;;;;;17.97;16.97;;;34.60;1.00;;;;;;2611593;54;20415;-73
2023/07/08 10:05:37;;;;;;;16.83;15.93;;;34.40;1.00;;;;;;2612695;54;20921;-73
2023/07/08 10:11:28;;;;;;;16.20;15.40;;;34.40;1.00;;;;;;2612148;54;20399;-73
2023/07/08 10:17:18;;;;;;;16.53;15.73;;;33.80;1.00;;;;;;2612394;54;20401;-72
2023/07/08 10:23:16;;;;;;;15.33;14.53;;;34.30;1.00;;;;;;2613775;54;20412;-72
2023/07/08 10:49:03;;;;;;;16.43;15.53;;;33.70;1.00;;;;;;2612321;54;20994;-73
2023/07/08 10:55:16;;;;;;;15.27;14.47;;;35.00;1.00;;;;;;2612402;54;20626;-73
2023/07/08 11:20:36;;;;;;;15.97;15.17;;;36.10;1.00;;;;;;2612175;54;20375;-73
2023/07/08 11:26:24;;;;;;;15.27;14.57;;;35.10;1.00;;;;;;2613801;54;20142;-72
2023/07/08 11:32:16;;;;;;;16.00;15.17;;;35.70;1.00;;;;;;2613719;54;20125;-72
2023/07/08 11:38:05;;;;;;;15.33;14.57;;;35.90;1.00;;;;;;2613011;54;20428;-72
2023/07/08 11:43:57;;;;;;;15.47;14.67;;;34.50;1.00;;;;;;2612973;54;20403;-73
2023/07/08 11:49:48;;;;;;;15.27;14.47;;;35.30;1.00;;;;;;2612065;54;20402;-72
2023/07/08 11:59:51;;;;;;;15.90;15.10;;;35.40;1.00;;;;;;2614679;54;20390;-72
2023/07/08 12:05:39;;;;;;;15.30;14.37;;;35.90;1.00;;;;;;2608960;54;20409;-72
2023/07/08 12:11:34;;;;;;;15.43;14.60;;;36.00;1.00;;;;;;2612366;54;20146;-72
2023/07/08 12:17:22;;;;;;;15.60;14.80;;;35.30;1.00;;;;;;2613544;54;20422;-72
2023/07/08 12:23:20;;;;;;;15.53;14.73;;;37.00;1.00;;;;;;2614627;54;20135;-72
2023/07/08 12:29:13;;;;;;;16.40;15.47;;;36.80;1.00;;;;;;2613733;54;20919;-72
2023/07/08 12:35:03;;;;;;;15.83;14.90;;;37.10;1.00;;;;;;2613062;54;20427;-72
2023/07/08 12:40:51;;;;;;;16.10;15.30;;;36.20;1.00;;;;;;2612608;54;20404;-73
2023/07/08 12:46:39;;;;;;;16.17;15.37;;;36.50;1.00;;;;;;2612940;39;20469;-73
2023/07/08 12:52:27;;;;;;;15.90;14.90;;;36.20;1.00;;;;;;2613608;54;20210;-72
2023/07/08 12:55:19;;;;;;;15.80;14.90;;;36.90;1.00;;;;;;2612196;54;20523;-73
2023/07/08 12:57:48;;;;;;;15.70;14.90;;;36.00;1.00;;;;;;2613402;54;20249;-72
2023/07/08 13:03:42;;;;;;;15.57;14.67;;;36.80;1.00;;;;;;2613137;54;20585;-72
2023/07/08 13:09:44;;;;;;;15.70;14.90;;;36.00;1.00;;;;;;2614115;54;20569;-72
2023/07/08 13:15:39;;;;;;;16.30;14.87;;;35.70;1.00;;;;;;2614302;54;20484;-72
2023/07/08 13:21:30;;;;;;;15.10;14.30;;;36.90;1.00;;;;;;2613110;54;20396;-72
2023/07/08 13:27:24;;;;;;;15.90;15.00;;;36.90;1.00;;;;;;2612139;54;26491;-72
2023/07/08 13:33:17;;;;;;;15.87;14.80;;;36.70;1.00;;;;;;2612431;54;20401;-72
2023/07/08 13:39:14;;;;;;;16.50;15.50;;;36.10;1.00;;;;;;2607812;54;20997;-73
2023/07/08 13:45:02;;;;;;;16.30;15.40;;;36.70;1.00;;;;;;2613058;46;20463;-72
2023/07/08 14:00:30;;;;;;;15.10;14.30;;;37.10;1.00;;;;;;2612768;54;20393;-71
2023/07/08 14:06:21;;;;;;;15.57;14.60;;;35.40;1.00;;;;;;2613437;54;20366;-72
2023/07/08 14:12:09;;;;;;;16.30;15.30;;;36.80;1.00;;;;;;2612810;54;20397;-72
2023/07/08 14:17:56;;;;;;;16.27;15.30;;;36.20;1.00;;;;;;2614175;54;20258;-73
2023/07/08 14:23:45;;;;;;;15.87;15.07;;;36.60;1.00;;;;;;2609853;54;20153;-71
2023/07/08 14:29:33;;;;;;;15.23;14.53;;;37.10;1.00;;;;;;2615124;31;20885;-72
2023/07/08 14:35:27;;;;;;;14.80;14.10;;;36.90;1.00;;;;;;2613146;54;20235;-71
2023/07/08 14:41:15;;;;;;;15.97;14.90;;;36.40;1.00;;;;;;2613247;54;20394;-72
2023/07/08 14:47:08;;;;;;;16.30;15.50;;;36.60;1.00;;;;;;2612651;54;20158;-72
2023/07/08 14:52:56;;;;;;;16.83;15.73;;;36.30;1.00;;;;;;2614126;54;20491;-72
2023/07/08 14:55:36;;;;;;;16.10;15.20;;;35.70;1.00;;;;;;2613719;54;20424;-72
2023/07/08 14:58:03;;;;;;;16.30;15.47;;;36.40;1.00;;;;;;2613935;54;20157;-73
2023/07/08 15:03:50;;;;;;;15.83;15.03;;;36.20;1.00;;;;;;2614128;54;20433;-73
2023/07/08 15:09:38;;;;;;;16.03;15.23;;;36.70;1.00;;;;;;2614450;39;20530;-72
2023/07/08 15:15:32;;;;;;;15.07;14.37;;;36.70;1.00;;;;;;2613539;54;20162;-72
2023/07/08 15:21:19;;;;;;;15.50;14.80;;;36.80;1.00;;;;;;2613898;54;20943;-72
2023/07/08 15:27:11;;;;;;;15.90;15.10;;;36.60;1.00;;;;;;2611563;54;21254;-71
2023/07/08 15:32:59;;;;;;;16.57;15.73;;;35.70;1.00;;;;;;2609217;54;20371;-72
2023/07/08 15:38:47;;;;;;;17.17;16.27;;;35.40;1.00;;;;;;2610670;46;20614;-72
2023/07/08 15:44:35;;;;;;;17.27;15.80;;;35.10;1.00;;;;;;2610719;54;20184;-72
2023/07/08 15:50:25;;;;;;;16.87;15.83;;;34.80;1.00;;;;;;2610451;54;20158;-71
2023/07/08 16:00:04;;;;;;;17.70;16.20;;;35.10;1.00;;;;;;2613337;54;20375;-71
2023/07/08 16:05:53;;;;;;;18.53;17.43;;;35.60;1.00;;;;;;2611570;54;20398;-71
2023/07/08 16:11:41;;;;;;;17.63;16.57;;;34.90;1.00;;;;;;2614302;54;20399;-71
2023/07/08 16:17:36;;;;;;;16.70;15.80;;;34.30;1.00;;;;;;2612190;54;20966;-71
2023/07/08 16:23:24;;;;;;;17.17;16.20;;;35.00;1.00;;;;;;2614948;54;20452;-71
2023/07/08 16:29:16;;;;;;;16.37;15.53;;;35.00;1.00;;;;;;2613404;54;20388;-71
2023/07/08 16:35:04;;;;;;;16.83;16.03;;;34.90;1.00;;;;;;2614292;54;20378;-70
2023/07/08 16:40:52;;;;;;;17.50;16.60;;;34.70;1.00;;;;;;2614506;54;20392;-71
2023/07/08 16:46:40;;;;;;;15.93;14.90;;;35.10;1.00;;;;;;2613646;54;20139;-71
2023/07/08 16:52:28;;;;;;;16.93;15.93;;;36.50;1.00;;;;;;2614093;54;20151;-72
2023/07/08 16:58:53;;;;;;;16.40;15.50;;;35.60;1.00;;;;;;2612093;54;20204;-72
2023/07/08 17:01:38;;;;;;;17.50;16.30;;;35.20;1.00;;;;;;2613675;54;20415;-72
2023/07/08 17:07:26;;;;;;;18.67;17.67;;;34.80;1.00;;;;;;2611611;54;20425;-71
2023/07/08 17:13:13;;;;;;;17.77;16.67;;;33.80;1.00;;;;;;2611131;54;20140;-72
2023/07/08 17:19:01;;;;;;;19.40;18.20;;;34.50;1.00;;;;;;2612570;54;20252;-72
2023/07/08 17:24:50;;;;;;;17.57;16.67;;;34.80;1.00;;;;;;2613583;54;21034;-70
2023/07/08 17:30:43;;;;;;;18.53;17.63;;;34.50;1.00;;;;;;2611682;54;20134;-71
2023/07/08 17:36:35;;;;;;;21.10;19.57;;;34.20;1.00;;;;;;2611253;39;20708;-71
2023/07/08 17:42:23;;;;;;;20.50;19.20;;;34.50;1.00;;;;;;2612369;39;21044;-71
2023/07/08 17:48:20;;;;;;;20.30;19.00;;;33.40;1.00;;;;;;2611576;54;20210;-72
2023/07/08 17:51:23;;;;;;;20.93;19.53;;;33.20;1.00;;;;;;2613850;54;20503;-70
2023/07/08 17:53:49;;;;;;;20.53;19.43;;;32.80;1.00;;;;;;2612671;47;20961;-72
2023/07/08 17:57:06;;;;;;;21.57;20.10;;;32.80;1.00;;;;;;2612218;54;20966;-71
2023/07/08 17:59:33;;;;;;;20.63;19.13;;;32.60;1.00;;;;;;2610608;54;20422;-71
2023/07/08 18:05:24;;;;;;;20.60;19.40;;;32.70;1.00;;;;;;2612337;54;20435;-71
2023/07/08 18:11:14;;;;;;;20.00;18.80;;;32.40;1.00;;;;;;2612424;54;20387;-71
2023/07/08 18:17:01;;;;;;;20.20;18.93;;;32.30;1.00;;;;;;2613437;54;20431;-71
2023/07/08 18:22:52;;;;;;;19.70;18.60;;;32.20;1.00;;;;;;2614348;54;20150;-71
2023/07/08 18:28:40;;;;;;;20.70;19.50;;;31.90;1.00;;;;;;2614587;54;20419;-71
2023/07/08 18:34:27;;;;;;;19.83;18.73;;;31.70;1.00;;;;;;2612225;54;20222;-71
2023/07/08 18:40:18;;;;;;;20.77;19.47;;;31.50;1.00;;;;;;2611589;54;20150;-71
2023/07/08 18:46:10;;;;;;;21.43;20.23;;;31.30;1.00;;;;;;2614391;54;20431;-71
2023/07/08 18:51:58;;;;;;;20.97;19.57;;;30.90;1.00;;;;;;2614374;54;20515;-70
2023/07/08 19:01:43;;;;;;;21.67;20.27;;;30.80;1.00;;;;;;2612817;54;21026;-72
2023/07/08 19:07:31;;;;;;;21.40;20.10;;;30.30;1.00;;;;;;2613364;54;20491;-72
2023/07/08 19:13:20;;;;;;;20.07;18.90;;;29.80;1.00;;;;;;2612948;54;20157;-70
2023/07/08 19:19:11;;;;;;;22.03;20.63;;;29.60;1.00;;;;;;2612871;54;20399;-70
2023/07/08 19:24:58;;;;;;;21.97;20.50;;;29.10;1.40;;;;;;2613937;54;20548;-71
2023/07/08 19:30:53;;;;;;;22.83;21.10;;;28.80;4.30;;;;;;2613530;54;20130;-70
2023/07/08 19:36:41;;;;;;;22.83;20.93;;;28.40;7.50;;;;;;2612578;54;20390;-71
2023/07/08 19:42:29;;;;;;;21.47;20.07;;;28.20;11.40;;;;;;2614268;54;20158;-71
2023/07/08 19:48:17;;;;;;;21.37;20.00;;;28.90;7.40;;;;;;2612771;54;20139;-72
2023/07/08 19:54:04;;;;;;;21.10;19.67;;;28.60;9.20;;;;;;2614670;54;20146;-71
2023/07/08 19:57:10;;;;;;;21.47;19.90;;;28.50;8.90;;;;;;2613840;54;20488;-72
2023/07/08 19:59:36;;;;;;;19.70;18.67;;;28.50;9.10;;;;;;2614073;54;20159;-72
2023/07/08 20:11:59;;;;;;;20.37;19.33;;;28.10;11.40;;;;;;2611935;54;20395;-71
2023/07/08 20:17:47;;;;;;;20.20;19.00;;;27.90;12.20;;;;;;2612439;54;20130;-71
2023/07/08 20:23:37;;;;;;;21.20;19.90;;;27.50;14.60;;;;;;2613749;54;20117;-71
2023/07/08 20:29:24;;;;;;;19.83;18.70;;;27.50;15.80;;;;;;2612722;54;20431;-71
2023/07/08 20:35:16;;;;;;;19.73;18.40;;;27.30;15.60;;;;;;2613972;54;20126;-70
2023/07/08 20:41:04;;;;;;;19.97;18.60;;;27.20;13.90;;;;;;2612807;54;20395;-71
2023/07/08 20:46:52;;;;;;;20.03;18.77;;;27.00;14.60;;;;;;2613518;54;20644;-70
2023/07/08 20:52:40;;;;;;;20.80;19.23;;;26.70;15.80;;;;;;2614121;54;20122;-71
2023/07/08 21:01:58;;;;;;;18.70;17.40;;;26.40;16.70;;;;;;2613499;54;20410;-70
2023/07/08 21:07:46;;;;;;;20.83;19.43;;;26.00;21.60;;;;;;2612402;54;20387;-71
2023/07/08 21:13:38;;;;;;;19.30;18.30;;;25.60;29.50;;;;;;2613697;54;20480;-71
2023/07/08 21:19:26;;;;;;;19.13;17.93;;;25.60;28.00;;;;;;2613310;54;20953;-72
2023/07/08 21:25:15;;;;;;;20.77;19.53;;;25.60;26.70;;;;;;2611264;54;20161;-70
2023/07/08 21:31:03;;;;;;;18.93;17.87;;;25.70;23.00;;;;;;2614173;54;20395;-70
2023/07/08 21:36:51;;;;;;;19.07;18.07;;;25.90;19.40;;;;;;2613096;54;20395;-70
2023/07/08 21:42:39;;;;;;;18.43;17.40;;;26.00;16.10;;;;;;2612825;39;20243;-71
2023/07/08 21:48:27;;;;;;;19.30;18.20;;;25.90;16.40;;;;;;2613589;54;20146;-71
2023/07/08 21:54:15;;;;;;;17.93;17.07;;;25.50;16.60;;;;;;2613521;54;20397;-71
2023/07/08 21:57:26;;;;;;;19.50;18.30;;;25.50;17.40;;;;;;2613364;47;20960;-71
2023/07/08 21:59:51;;;;;;;19.37;18.47;;;25.40;17.40;;;;;;2612136;54;20192;-70
2023/07/08 22:05:39;;;;;;;18.60;17.70;;;25.30;18.70;;;;;;2614119;54;20122;-71
2023/07/08 22:11:32;;;;;;;20.00;18.90;;;25.20;20.50;;;;;;2612741;54;20399;-70
2023/07/08 22:17:20;;;;;;;19.63;18.07;;;25.40;20.20;;;;;;2613057;54;21003;-71
2023/07/08 22:23:11;;;;;;;19.33;18.33;;;25.20;21.60;;;;;;2613683;54;20155;-71
2023/07/08 22:28:58;;;;;;;20.60;19.33;;;24.90;25.60;;;;;;2614023;54;20386;-71
2023/07/08 22:34:46;;;;;;;19.60;18.47;;;25.00;24.20;;;;;;2613625;31;20734;-70
2023/07/08 22:40:38;;;;;;;19.60;18.40;;;25.10;23.40;;;;;;2614689;54;20179;-71
2023/07/08 22:46:28;;;;;;;18.83;17.83;;;25.20;22.30;;;;;;2613665;54;20426;-72
2023/07/08 23:02:09;;;;;;;20.03;18.73;;;25.00;24.20;;;;;;2613592;54;20399;-71
2023/07/08 23:07:57;;;;;;;19.33;18.33;;;25.00;22.50;;;;;;2614652;54;20162;-73
2023/07/08 23:13:46;;;;;;;20.07;18.70;;;24.70;25.00;;;;;;2613448;46;20187;-71
2023/07/08 23:19:34;;;;;;;19.90;18.80;;;24.20;30.10;;;;;;2613908;54;20359;-71
2023/07/08 23:25:22;;;;;;;20.57;19.47;;;23.90;41.90;;;;;;2613422;54;20165;-72
2023/07/08 23:31:10;;;;;;;20.77;19.50;;;23.50;55.30;;;;;;2614837;54;20444;-71
2023/07/08 23:37:03;;;;;;;18.40;17.50;;;23.20;87.00;;;;;;2612634;54;20475;-71
2023/07/08 23:42:51;;;;;;;21.30;20.00;;;23.00;92.30;;;;;;2614364;54;20957;-71
2023/07/08 23:45:55;;;;;;;19.17;18.20;;;23.00;98.20;;;;;;2612864;47;20433;-71
2023/07/08 23:48:21;;;;;;;19.50;18.50;;;22.90;99.90;;;;;;2614176;31;20645;-71
2023/07/08 23:57:23;;;;;;;20.50;19.30;;;22.70;99.90;;;;;;2614439;54;20447;-71
2023/07/08 23:59:54;;;;;;;19.83;18.40;;;22.50;99.90;;;;;;2613344;51;21329;-71
